Latest Weather Observations for Double Island Point

IDQ60901

Issued at 10:21 pm EST Thursday 18 December 2014 (issued every 10 minutes, with the page automatically refreshed every 10 minutes)

About weather observations | Map of Brisbane area stations | Latest observations for Brisbane area | Other Formats
Station Details ID: 040068 Name: DOUBLE ISLAND POINT LIGHTHOUSE Lat: -25.93 Lon: 153.19 Height: 95.64 m
Data from the previous 72 hours. | See also: Recent months at Double Island Point
Date/Time
EST
Tmp

°C
App
Tmp
°C
Dew
Point
°C
Rel
Hum
%
Delta-T

°C
Wind Press
QNH
hPa
Press
MSL
hPa
Rain
since
9 am
mm
Dir
 
Spd
km/h
Gust
km/h
Spd
kts
Gust
kts
18/10:00pm 23.7 24.3 21.0 85 1.8 SSE 19 24 10 13 1012.4 1011.9 0.0
18/09:30pm 24.8 24.6 19.8 74 3.2 WSW 20 37 11 20 1012.3 1011.8 0.0
18/09:00pm 25.8 25.0 19.2 67 4.3 WNW 22 28 12 15 1012.0 1011.5 0.0
18/08:30pm 25.8 22.8 19.9 70 3.8 NW 35 46 19 25 1011.3 1010.8 0.0
18/08:00pm 25.6 21.9 20.8 75 3.2 NW 41 59 22 32 1010.5 1010.0 0.0
18/07:55pm 25.7 22.7 21.4 77 2.9 NW 39 59 21 32 1010.7 1010.2 0.0
18/07:48pm 25.4 24.3 21.1 77 2.8 NNW 28 46 15 25 1011.1 1010.6 0.0
18/07:30pm 25.4 25.1 21.1 77 2.8 NNW 24 33 13 18 1009.8 1009.3 0.0
18/07:00pm 25.4 26.0 21.1 77 2.8 NNW 19 28 10 15 1009.6 1009.1 0.0
18/06:30pm 25.6 26.6 21.1 76 3.0 NNW 17 24 9 13 1008.8 1008.3 0.0
18/06:00pm 25.9 26.4 20.9 74 3.3 NNW 19 26 10 14 1008.8 1008.3 0.0
18/05:30pm 26.4 26.7 20.5 70 3.9 NNW 19 24 10 13 1008.9 1008.4 0.0
18/05:00pm 27.2 27.1 20.0 64 4.7 NNW 20 28 11 15 1008.2 1007.7 0.0
18/04:30pm 27.4 27.5 20.0 64 4.8 NNW 19 24 10 13 1007.7 1007.2 0.0
18/04:00pm 28.2 28.9 20.5 63 5.1 NNW 17 24 9 13 1007.6 1007.1 0.0
18/03:30pm 28.7 30.0 20.2 60 5.6 N 13 17 7 9 1007.2 1006.7 0.0
18/03:00pm 29.4 31.2 20.3 58 6.0 N 11 17 6 9 1007.3 1006.8 0.0
18/02:30pm 30.6 32.6 20.8 56 6.5 N 11 17 6 9 1007.8 1007.3 0.0
18/02:00pm 30.6 32.6 20.8 56 6.6 N 11 17 6 9 1008.4 1007.9 0.0
18/01:30pm 31.2 33.8 21.9 57 6.3 N 11 17 6 9 1009.1 1008.6 0.0
18/01:00pm 30.8 33.4 21.9 59 6.0 N 11 17 6 9 1009.4 1008.9 0.0
18/12:30pm 31.1 34.2 22.1 58 6.1 NNE 9 15 5 8 1009.6 1009.1 0.0
18/12:00pm 31.0 33.8 22.3 60 5.9 N 11 17 6 9 1009.9 1009.4 0.0
18/11:30am 30.7 33.3 22.6 62 5.5 N 13 17 7 9 1010.5 1010.0 0.0
18/11:00am 30.3 33.0 22.2 62 5.5 N 11 15 6 8 1010.9 1010.4 0.0
18/10:30am 29.9 33.5 23.1 67 4.7 N 9 15 5 8 1011.3 1010.8 0.0
18/10:00am 29.2 32.1 22.4 66 4.6 NNW 11 17 6 9 1011.6 1011.1 0.0
18/09:30am 29.5 33.7 23.4 69 4.2 NNW 7 9 4 5 1011.8 1011.3 0.0
18/09:00am 29.0 32.4 22.7 69 4.3 N 9 11 5 6 1012.0 1011.5 1.2
18/08:30am 28.3 31.4 22.1 69 4.2 N 9 13 5 7 1011.9 1011.4 1.2
18/08:00am 27.9 30.9 21.9 70 4.0 N 9 13 5 7 1011.9 1011.4 1.2
18/07:30am 27.2 28.8 21.5 71 3.8 N 15 19 8 10 1012.0 1011.5 1.0
18/07:00am 26.5 29.0 21.7 75 3.2 NE 11 15 6 8 1012.1 1011.6 1.0
18/06:30am 25.0 26.6 20.7 77 2.8 ENE 13 17 7 9 1012.0 1011.5 1.0
18/06:00am 24.6 25.7 20.5 78 2.7 E 15 19 8 10 1011.7 1011.2 1.0
18/05:30am 24.2 25.0 19.9 77 2.8 SE 15 19 8 10 1011.3 1010.8 1.0
18/05:00am 23.4 22.9 18.7 75 3.0 S 19 24 10 13 1010.9 1010.4 1.0
18/04:30am 23.4 22.8 18.9 76 2.9 S 20 28 11 15 1010.3 1009.8 1.0
18/04:00am 23.7 22.6 18.6 73 3.2 SW 22 30 12 16 1009.6 1009.1 1.0
18/03:30am 24.3 21.5 19.1 73 3.3 WNW 32 37 17 20 1008.8 1008.3 1.0
18/03:00am 24.5 21.1 18.9 71 3.6 WNW 35 44 19 24 1007.9 1007.4 1.0
18/02:30am 24.3 20.5 18.2 68 3.9 WNW 35 48 19 26 1007.6 1007.1 1.0
18/02:00am 24.1 19.5 18.1 69 3.8 WNW 39 50 21 27 1007.4 1006.9 1.0
18/01:30am 23.9 19.5 18.5 72 3.4 WNW 39 52 21 28 1007.4 1006.9 1.0
18/01:00am 24.4 19.0 17.1 63 4.5 WNW 41 52 22 28 1007.5 1007.0 1.0
18/12:30am 24.7 21.0 16.9 62 4.8 WNW 32 39 17 21 1007.4 1006.9 1.0
18/12:00am 24.5 21.4 18.4 69 3.9 NW 32 39 17 21 1007.7 1007.2 1.0
 
Date/Time
EST
Tmp

°C
App
Tmp
°C
Dew
Point
°C
Rel
Hum
%
Delta-T

°C
Wind Press
QNH
hPa
Press
MSL
hPa
Rain
since
9 am
mm
Dir
 
Spd
km/h
Gust
km/h
Spd
kts
Gust
kts
17/11:30pm 24.8 24.4 19.4 72 3.5 NNW 20 35 11 19 1007.9 1007.4 1.0
17/11:00pm 25.4 24.7 18.3 65 4.5 N 19 26 10 14 1008.2 1007.7 1.0
17/10:30pm 24.4 24.1 19.2 73 3.3 N 19 26 10 14 1008.4 1007.9 1.0
17/10:00pm 24.7 21.4 18.4 68 4.0 N 33 63 18 34 1008.0 1007.5 1.0
17/09:51pm 25.1 23.6 18.5 67 4.2 NNW 24 63 13 34 1008.2 1007.7 1.0
17/09:30pm 25.4 24.7 17.3 61 5.1 N 17 24 9 13 1007.7 1007.2 1.0
17/09:08pm 24.0 22.1 19.3 75 3.0 N 28 43 15 23 1006.7 1006.2 1.0
17/09:00pm 24.0 20.7 18.4 71 3.5 NNW 33 46 18 25 1008.8 1008.3 1.0
17/08:30pm 26.2 23.5 16.7 56 5.9 N 26 52 14 28 1009.9 1009.4 0.6
17/08:25pm 26.3 21.8 15.4 51 6.6 NNW 33 52 18 28 1010.1 1009.6 0.6
17/08:22pm 26.2 22.7 17.8 60 5.3 NW 33 50 18 27 1009.8 1009.3 0.6
17/08:19pm 26.6 22.9 17.4 57 5.8 WNW 33 50 18 27 1009.3 1008.8 0.6
17/08:14pm 26.6 23.8 17.4 57 5.8 NW 28 46 15 25 1009.1 1008.6 0.6
17/08:00pm 25.7 24.5 18.4 64 4.7 N 22 37 12 20 1008.8 1008.3 0.6
17/07:30pm 27.2 26.1 19.5 62 5.0 SW 24 39 13 21 1008.6 1008.1 0.4
17/07:21pm 27.3 25.6 20.6 67 4.4 SSW 30 41 16 22 1008.3 1007.8 0.4
17/07:04pm 26.4 26.7 21.6 75 3.2 W 22 41 12 22 1007.8 1007.3 0.4
17/07:00pm 26.7 28.3 22.1 76 3.1 NNW 17 22 9 12 1007.1 1006.6 0.4
17/06:30pm 26.1 28.6 22.4 80 2.5 NNW 13 19 7 10 1006.4 1005.9 0.4
17/06:00pm 26.4 25.1 22.5 79 2.6 NW 33 43 18 23 1005.3 1004.8 0.4
17/05:30pm 26.7 27.8 23.0 80 2.5 NNW 22 35 12 19 1004.4 1003.9 0.4
17/05:00pm 27.3 29.2 22.7 76 3.1 N 17 30 9 16 1005.1 1004.6 0.0
17/04:30pm 28.8 30.4 22.8 70 4.1 N 19 30 10 16 1004.6 1004.1 0.0
17/04:00pm 30.4 32.5 23.1 65 5.0 N 17 30 9 16 1004.6 1004.1 0.0
17/03:30pm 31.1 34.2 23.5 64 5.3 N 13 19 7 10 1004.5 1004.0 0.0
17/03:00pm 31.2 34.3 23.6 64 5.3 N 13 24 7 13 1004.7 1004.2 0.0
17/02:30pm 31.3 33.0 23.1 61 5.7 N 19 24 10 13 1005.1 1004.6 0.0
17/02:00pm 32.0 36.0 23.8 62 5.7 N 9 17 5 9 1005.5 1005.0 0.0
17/01:30pm 32.3 36.8 24.6 64 5.4 N 9 15 5 8 1005.8 1005.3 0.0
17/01:00pm 31.6 35.7 23.9 63 5.4 N 9 15 5 8 1006.2 1005.7 0.0
17/12:30pm 31.4 35.4 23.8 64 5.3 N 9 13 5 7 1006.5 1006.0 0.0
17/12:00pm 31.0 35.1 23.9 66 5.0 N 9 15 5 8 1006.8 1006.3 0.0
17/11:30am 30.6 34.7 23.3 65 5.0 N 7 9 4 5 1007.1 1006.6 0.0
17/11:00am 30.5 35.0 23.9 68 4.6 N 7 11 4 6 1007.4 1006.9 0.0
17/10:30am 29.0 28.2 21.7 64 4.9 NNW 28 33 15 18 1007.6 1007.1 0.0
17/10:00am 27.5 27.1 22.4 73 3.5 NW 28 35 15 19 1007.5 1007.0 0.0
17/09:30am 26.8 26.6 22.0 75 3.2 NW 26 35 14 19 1007.6 1007.1 0.0
17/09:00am 27.2 27.2 23.0 78 2.9 NW 28 33 15 18 1007.8 1007.3 0.0
17/08:30am 26.0 26.3 22.3 80 2.5 NW 24 32 13 17 1007.9 1007.4 0.0
17/08:00am 25.9 26.9 22.8 83 2.1 NW 22 28 12 15 1008.0 1007.5 0.0
17/07:30am 24.8 26.0 22.5 87 1.5 NW 20 26 11 14 1007.5 1007.0 0.0
17/07:00am 24.5 25.5 22.2 87 1.5 NW 20 26 11 14 1007.6 1007.1 0.0
17/06:30am 24.2 25.1 21.9 87 1.5 NW 20 24 11 13 1007.5 1007.0 0.0
17/06:00am 24.0 24.1 21.9 88 1.4 NW 24 30 13 16 1007.3 1006.8 0.0
17/05:30am 24.2 23.7 22.1 88 1.4 NNW 28 32 15 17 1006.7 1006.2 0.0
17/05:00am 23.9 25.7 21.8 88 1.4 NNW 15 20 8 11 1006.2 1005.7 0.0
17/04:30am 23.8 24.2 21.7 88 1.4 NNW 22 28 12 15 1006.2 1005.7 0.0
17/04:00am 23.7 24.5 21.4 87 1.5 NNW 19 22 10 12 1006.3 1005.8 0.0
17/03:30am 23.6 25.5 21.3 87 1.5 N 13 19 7 10 1005.8 1005.3 0.0
17/03:00am 23.5 23.6 21.2 87 1.5 NNW 22 26 12 14 1006.2 1005.7 0.0
17/02:30am 23.6 23.7 21.1 86 1.6 NW 22 30 12 16 1007.0 1006.5 0.0
17/02:00am 23.9 22.4 21.0 84 1.9 NW 30 35 16 19 1006.9 1006.4 0.0
17/01:30am 24.0 22.8 20.9 83 2.0 NW 28 37 15 20 1007.2 1006.7 0.0
17/01:00am 23.9 25.2 20.8 83 2.0 W 15 28 8 15 1008.0 1007.5 0.0
17/12:30am 23.9 24.2 20.8 83 2.0 WSW 20 30 11 16 1008.3 1007.8 0.0
17/12:00am 23.9 24.9 21.0 84 1.9 W 17 26 9 14 1008.6 1008.1 0.0
 
Date/Time
EST
Tmp

°C
App
Tmp
°C
Dew
Point
°C
Rel
Hum
%
Delta-T

°C
Wind Press
QNH
hPa
Press
MSL
hPa
Rain
since
9 am
mm
Dir
 
Spd
km/h
Gust
km/h
Spd
kts
Gust
kts
16/11:30pm 23.8 24.3 21.1 85 1.8 NNW 20 28 11 15 1007.6 1007.1 0.0
16/11:00pm 23.7 24.7 21.0 85 1.8 NNW 17 26 9 14 1007.7 1007.2 0.0
16/10:30pm 23.7 25.4 21.0 85 1.8 NNW 13 22 7 12 1007.9 1007.4 0.0
16/10:00pm 23.7 25.7 20.8 84 1.9 N 11 22 6 12 1007.9 1007.4 0.0
16/09:30pm 23.8 25.4 20.7 83 2.0 N 13 20 7 11 1007.9 1007.4 0.0
16/09:00pm 24.0 26.0 20.7 82 2.2 NNW 11 19 6 10 1007.7 1007.2 0.0
16/08:30pm 24.0 24.2 20.5 81 2.3 NNW 20 33 11 18 1007.7 1007.2 0.0
16/08:00pm 24.0 23.3 20.3 80 2.4 NNW 24 32 13 17 1007.6 1007.1 0.0
16/07:30pm 24.3 26.0 21.0 82 2.2 NNW 13 22 7 12 1007.4 1006.9 0.0
16/07:00pm 24.4 27.1 21.3 83 2.1 N 9 13 5 7 1007.1 1006.6 0.0
16/06:30pm 24.5 26.2 21.0 81 2.3 N 13 22 7 12 1006.8 1006.3 0.0
16/06:00pm 25.0 25.6 20.3 75 3.1 N 17 30 9 16 1006.7 1006.2 0.0
16/05:30pm 25.7 25.5 19.8 70 3.8 N 20 32 11 17 1006.3 1005.8 0.0
16/05:00pm 26.1 26.4 19.5 67 4.3 N 17 30 9 16 1006.3 1005.8 0.0
16/04:30pm 26.1 25.1 18.8 64 4.7 N 22 32 12 17 1006.2 1005.7 0.0
16/04:00pm 26.6 24.5 19.0 63 4.9 N 28 33 15 18 1006.3 1005.8 0.0
16/03:30pm 27.1 25.0 18.9 61 5.3 N 28 33 15 18 1006.6 1006.1 0.0
16/03:00pm 27.4 26.5 18.1 57 5.9 N 20 30 11 16 1007.2 1006.7 0.0
16/02:30pm 27.7 26.4 19.0 59 5.6 NNE 24 28 13 15 1007.6 1007.1 0.0
16/02:00pm 27.8 26.9 18.2 56 6.1 N 20 28 11 15 1008.0 1007.5 0.0
16/01:30pm 27.8 27.2 18.5 57 6.0 N 19 24 10 13 1008.5 1008.0 0.0
16/01:00pm 27.8 26.1 18.2 56 6.1 NNE 24 26 13 14 1008.6 1008.1 0.0
16/12:30pm 28.0 27.3 18.7 57 6.0 NNE 20 24 11 13 1009.0 1008.5 0.0
16/12:00pm 27.6 27.1 18.6 58 5.8 NNE 19 24 10 13 1009.5 1009.0 0.0
16/11:30am 27.6 27.8 18.6 58 5.8 NNE 15 19 8 10 1010.0 1009.5 0.0
16/11:00am 27.3 27.3 18.0 56 5.9 NNE 15 19 8 10 1010.1 1009.6 0.0
16/10:30am 27.3 28.8 18.9 60 5.4 NNE 9 11 5 6 1010.6 1010.1 0.0
16/10:00am 26.2 27.9 18.1 61 5.1 NE 6 9 3 5 1011.2 1010.7 0.0
16/09:30am 25.3 26.6 17.5 62 4.9 E 7 9 4 5 1011.4 1010.9 0.0
16/09:00am 24.9 26.5 17.9 65 4.4 ENE 6 7 3 4 1011.5 1011.0 0.0
16/08:30am 24.1 24.8 17.1 65 4.3 SE 9 13 5 7 1011.5 1011.0 0.0
16/08:00am 23.9 24.5 16.9 65 4.3 SE 9 11 5 6 1011.3 1010.8 0.0
16/07:30am 24.1 24.8 17.1 65 4.3 SE 9 11 5 6 1011.1 1010.6 0.0
16/07:00am 23.7 23.7 17.2 67 4.0 SSE 13 17 7 9 1010.9 1010.4 0.0
16/06:30am 22.7 22.6 16.9 70 3.6 S 13 15 7 8 1010.9 1010.4 0.0
16/06:00am 22.8 23.3 16.6 68 3.8 S 9 11 5 6 1010.7 1010.2 0.0
16/05:30am 21.8 22.5 16.1 70 3.4 SW 7 7 4 4 1010.7 1010.2 0.0
16/05:00am 21.4 21.8 16.4 73 3.0 S 9 9 5 5 1010.5 1010.0 0.0
16/04:30am 21.3 21.8 16.5 74 2.9 S 9 11 5 6 1010.2 1009.7 0.0
16/04:00am 21.4 21.8 16.4 73 3.0 SSE 9 9 5 5 1009.8 1009.3 0.0
16/03:30am 21.7 22.5 16.4 72 3.2 S 7 9 4 5 1010.0 1009.5 0.0
16/03:00am 21.7 22.4 16.2 71 3.3 S 7 9 4 5 1010.0 1009.5 0.0
16/02:30am 21.9 22.3 16.2 70 3.5 SE 9 11 5 6 1010.0 1009.5 0.0
16/02:00am 22.1 22.9 16.4 70 3.5 ESE 7 11 4 6 1010.0 1009.5 0.0
16/01:30am 22.1 22.0 16.1 69 3.6 SE 11 13 6 7 1010.2 1009.7 0.0
16/01:00am 21.9 21.9 16.2 70 3.5 ESE 11 15 6 8 1010.3 1009.8 0.0
16/12:30am 21.9 21.1 16.2 70 3.5 ESE 15 19 8 10 1010.6 1010.1 0.0
16/12:00am 22.0 20.8 16.1 69 3.6 ESE 17 22 9 12 1011.0 1010.5 0.0
 
Date/Time
EST
Tmp

°C
App
Tmp
°C
Dew
Point
°C
Rel
Hum
%
Delta-T

°C
Wind Press
QNH
hPa
Press
MSL
hPa
Rain
since
9 am
mm
Dir
 
Spd
km/h
Gust
km/h
Spd
kts
Gust
kts
15/11:30pm 22.3 20.8 16.8 71 3.4 SE 20 24 11 13 1011.2 1010.7 0.0
15/11:00pm 22.2 20.8 16.5 70 3.5 ESE 19 22 10 12 1011.5 1011.0 0.0
15/10:30pm 22.3 20.6 16.3 69 3.6 ESE 20 22 11 12 1011.6 1011.1 0.0

Latest Capital City Observations: Canberra | Sydney | Melbourne | Brisbane | Adelaide | Perth | Hobart | Darwin

Other Formats:

Comma delimited format used in spreadsheet applications
http://www.bom.gov.au/fwo/IDQ60901/IDQ60901.94584.axf

JavaScript Object Notation format (JSON) in row-major order
http://www.bom.gov.au/fwo/IDQ60901/IDQ60901.94584.json